Time;durP1;ratioP1;P1;durP2;ratioP2;P2;SDS_P1;SDS_P2;PMS_P1;PMS_P2;Temp;Humidity;BMP_temperature;BMP_pressure;BME280_temperature;BME280_humidity;BME280_pressure;Samples;Min_cycle;Max_cycle;Signal;HPM_P1;HPM_P2
2021/09/05 00:00:42;;;;;;;54.10;33.33;;;10.30;79.80;;;;;;5037752;28;20022;-76
2021/09/05 00:03:08;;;;;;;52.85;32.92;;;10.20;79.80;;;;;;5034406;28;20061;-76
2021/09/05 00:05:33;;;;;;;49.97;30.33;;;10.20;80.10;;;;;;5034364;28;20045;-75
2021/09/05 00:07:59;;;;;;;45.78;28.40;;;10.20;80.20;;;;;;5032074;28;20034;-76
2021/09/05 00:10:25;;;;;;;40.63;26.23;;;10.20;80.30;;;;;;5033131;28;20053;-75
2021/09/05 00:12:51;;;;;;;39.95;23.77;;;10.20;80.50;;;;;;5034223;28;20029;-75
2021/09/05 00:15:16;;;;;;;36.47;23.23;;;10.30;81.20;;;;;;5049574;28;20048;-76
2021/09/05 00:17:43;;;;;;;37.85;22.80;;;10.40;80.60;;;;;;5034268;28;20026;-75
2021/09/05 00:20:09;;;;;;;39.08;22.70;;;10.40;80.70;;;;;;5042954;28;20155;-75
2021/09/05 00:22:35;;;;;;;33.05;20.92;;;10.50;80.70;;;;;;5052853;28;20032;-75
2021/09/05 00:25:01;;;;;;;32.55;18.17;;;10.50;80.70;;;;;;5054097;28;20029;-75
2021/09/05 00:27:27;;;;;;;33.95;20.45;;;10.70;81.00;;;;;;5052902;28;20113;-75
2021/09/05 00:29:52;;;;;;;30.88;18.88;;;10.70;81.10;;;;;;5052803;28;20063;-75
2021/09/05 00:32:18;;;;;;;34.67;19.50;;;10.70;81.20;;;;;;5052511;28;20025;-75
2021/09/05 00:34:44;;;;;;;34.65;20.70;;;10.80;81.30;;;;;;5053836;28;20029;-75
2021/09/05 00:37:09;;;;;;;35.28;21.58;;;10.80;81.20;;;;;;5052470;28;20025;-75
2021/09/05 00:39:35;;;;;;;35.67;21.17;;;10.70;81.30;;;;;;5053847;28;20032;-75
2021/09/05 00:42:01;;;;;;;39.58;23.00;;;10.70;81.30;;;;;;5053663;28;20032;-75
2021/09/05 00:44:26;;;;;;;27.63;17.23;;;10.60;81.00;;;;;;5053711;28;20546;-75
2021/09/05 00:46:52;;;;;;;21.65;14.00;;;10.70;81.40;;;;;;5052757;28;20360;-75
2021/09/05 00:49:18;;;;;;;26.98;16.58;;;10.70;81.50;;;;;;5051350;28;20369;-75
2021/09/05 00:51:44;;;;;;;28.35;17.85;;;10.70;81.70;;;;;;5052530;28;20374;-75
2021/09/05 00:54:13;;;;;;;30.02;16.98;;;10.70;81.50;;;;;;5052435;28;20044;-75
2021/09/05 00:56:43;;;;;;;25.17;15.60;;;10.70;82.00;;;;;;5052511;28;20025;-75
2021/09/05 00:59:15;;;;;;;29.88;17.15;;;10.70;82.10;;;;;;5052328;28;20070;-75
2021/09/05 01:01:40;;;;;;;27.27;16.92;;;10.60;82.20;;;;;;5054975;28;20021;-76
2021/09/05 01:04:07;;;;;;;26.80;16.38;;;10.60;82.60;;;;;;5052834;28;20037;-75
2021/09/05 01:06:38;;;;;;;33.17;19.38;;;10.60;82.90;;;;;;5050742;28;20097;-75
2021/09/05 01:09:06;;;;;;;23.17;14.75;;;10.60;83.10;;;;;;5033378;28;20487;-75
2021/09/05 01:11:32;;;;;;;26.02;14.88;;;10.70;83.10;;;;;;5033561;28;20033;-75
2021/09/05 01:13:58;;;;;;;32.40;18.50;;;10.70;83.00;;;;;;5032181;28;20562;-75
2021/09/05 01:16:35;;;;;;;25.98;15.30;;;10.80;82.30;;;;;;5033531;28;20097;-75
2021/09/05 01:19:14;;;;;;;30.55;18.60;;;10.80;82.20;;;;;;5032177;28;20030;-75
2021/09/05 01:21:42;;;;;;;33.50;19.27;;;10.80;81.80;;;;;;5032490;28;20151;-75
2021/09/05 01:24:08;;;;;;;30.40;18.98;;;10.80;81.50;;;;;;5032528;28;20056;-75
2021/09/05 01:26:38;;;;;;;30.67;17.80;;;10.70;81.60;;;;;;5032399;28;20373;-75
2021/09/05 01:29:05;;;;;;;27.60;15.90;;;10.70;81.70;;;;;;5032231;28;20052;-76
2021/09/05 01:31:46;;;;;;;24.88;15.07;;;10.60;82.10;;;;;;5032182;28;20068;-75
2021/09/05 01:34:13;;;;;;;24.63;15.93;;;10.50;82.60;;;;;;5032062;28;20041;-75
2021/09/05 01:36:40;;;;;;;22.52;13.82;;;10.50;82.90;;;;;;5032644;28;20464;-76
2021/09/05 01:39:07;;;;;;;27.27;16.73;;;10.40;83.20;;;;;;5033352;28;20040;-75
2021/09/05 01:41:33;;;;;;;23.35;14.50;;;10.40;83.30;;;;;;5033431;28;20053;-75
2021/09/05 01:44:01;;;;;;;24.02;14.88;;;10.40;83.30;;;;;;5033141;28;20045;-75
2021/09/05 01:46:27;;;;;;;23.63;14.27;;;10.40;83.10;;;;;;5033064;28;20087;-75
2021/09/05 01:48:53;;;;;;;20.25;13.90;;;10.30;83.20;;;;;;5035014;28;20017;-75
2021/09/05 01:51:18;;;;;;;22.27;14.30;;;10.30;83.40;;;;;;5032103;28;20029;-75
2021/09/05 01:53:44;;;;;;;24.58;14.57;;;10.20;83.40;;;;;;5034295;28;20026;-75
2021/09/05 01:56:10;;;;;;;21.55;13.07;;;10.10;83.60;;;;;;5037016;28;20021;-75
2021/09/05 01:58:36;;;;;;;20.00;12.43;;;10.00;83.90;;;;;;5036766;28;20450;-76
2021/09/05 02:01:01;;;;;;;23.88;13.55;;;9.90;84.10;;;;;;5044364;28;20029;-75
2021/09/05 02:03:27;;;;;;;20.55;12.52;;;9.80;84.40;;;;;;5056883;28;20451;-76
2021/09/05 02:05:53;;;;;;;19.65;13.40;;;9.80;84.60;;;;;;5041548;28;20140;-75
2021/09/05 02:08:18;;;;;;;18.92;12.32;;;9.70;84.70;;;;;;5036661;28;20383;-75
2021/09/05 02:10:44;;;;;;;13.93;9.40;;;9.70;84.90;;;;;;5036757;28;20463;-76
2021/09/05 02:13:10;;;;;;;15.05;9.43;;;9.70;85.10;;;;;;5036477;28;20029;-76
2021/09/05 02:15:35;;;;;;;21.27;14.20;;;9.70;86.00;;;;;;5036356;28;20065;-75
2021/09/05 02:18:01;;;;;;;19.45;14.27;;;9.70;85.00;;;;;;5036402;28;20057;-75
2021/09/05 02:20:27;;;;;;;18.73;13.05;;;9.70;84.90;;;;;;5035513;28;20080;-75
2021/09/05 02:22:53;;;;;;;16.30;10.98;;;9.70;85.00;;;;;;5036326;28;20064;-76
2021/09/05 02:25:19;;;;;;;17.45;12.00;;;9.70;85.20;;;;;;5036876;28;20034;-75
2021/09/05 02:27:45;;;;;;;17.77;11.15;;;9.70;85.30;;;;;;5036175;28;20032;-76
2021/09/05 02:30:11;;;;;;;13.73;9.35;;;9.80;85.10;;;;;;5036196;28;20026;-75
2021/09/05 02:32:37;;;;;;;15.60;10.73;;;9.90;84.80;;;;;;5036340;28;20033;-75
2021/09/05 02:35:05;;;;;;;17.40;10.10;;;10.00;84.60;;;;;;5036293;28;20044;-76
2021/09/05 02:37:30;;;;;;;15.55;9.90;;;10.00;84.40;;;;;;5034973;28;20057;-75
2021/09/05 02:39:56;;;;;;;17.88;10.70;;;10.10;84.60;;;;;;5035461;28;20060;-75
2021/09/05 02:42:22;;;;;;;19.45;13.57;;;10.00;84.70;;;;;;5036395;28;20467;-75
2021/09/05 02:44:47;;;;;;;24.95;15.73;;;10.00;84.80;;;;;;5035726;28;20809;-75
2021/09/05 02:47:13;;;;;;;29.77;15.05;;;10.10;84.40;;;;;;5036671;28;20152;-75
2021/09/05 02:49:39;;;;;;;24.63;14.43;;;10.10;84.90;;;;;;5036142;28;20022;-76
2021/09/05 02:52:09;;;;;;;23.80;14.93;;;10.10;84.10;;;;;;5035987;28;20032;-75
2021/09/05 02:54:34;;;;;;;20.45;13.30;;;10.10;83.70;;;;;;5035975;28;20036;-75
2021/09/05 02:57:00;;;;;;;18.05;11.98;;;10.10;83.40;;;;;;5035769;28;20022;-76
2021/09/05 02:59:26;;;;;;;14.05;9.63;;;10.20;83.20;;;;;;5035823;28;20025;-75
2021/09/05 03:01:51;;;;;;;13.73;9.13;;;10.20;83.20;;;;;;5034891;28;20482;-75
2021/09/05 03:04:17;;;;;;;18.42;10.43;;;10.20;83.10;;;;;;5033579;28;20851;-75
2021/09/05 03:06:43;;;;;;;15.43;9.82;;;10.30;83.00;;;;;;5034344;28;20479;-75
2021/09/05 03:09:08;;;;;;;14.18;9.65;;;10.40;82.80;;;;;;5035691;28;20112;-76
2021/09/05 03:11:34;;;;;;;17.75;11.18;;;10.30;82.40;;;;;;5036905;28;20391;-77
2021/09/05 03:14:00;;;;;;;17.15;10.65;;;10.30;82.40;;;;;;5035462;28;20030;-76
2021/09/05 03:16:25;;;;;;;16.05;10.35;;;10.30;82.30;;;;;;5034190;28;20029;-76
2021/09/05 03:18:51;;;;;;;14.35;10.25;;;10.30;82.50;;;;;;5034205;28;20032;-76
2021/09/05 03:21:16;;;;;;;15.25;9.95;;;10.30;82.60;;;;;;5035449;28;20022;-76
2021/09/05 03:23:42;;;;;;;16.27;9.48;;;10.30;82.70;;;;;;5035086;28;20494;-75
2021/09/05 03:26:08;;;;;;;20.95;11.63;;;10.30;82.70;;;;;;5035514;28;20033;-76
2021/09/05 03:28:34;;;;;;;18.95;11.02;;;10.30;82.70;;;;;;5034105;28;20666;-75
2021/09/05 03:30:59;;;;;;;17.60;10.45;;;10.40;82.80;;;;;;5035451;28;20096;-75
2021/09/05 03:33:25;;;;;;;15.95;9.95;;;10.60;82.60;;;;;;5034055;28;20026;-76
2021/09/05 03:35:51;;;;;;;18.35;10.93;;;10.70;82.30;;;;;;5033614;28;20030;-78
2021/09/05 03:38:17;;;;;;;19.58;10.35;;;10.90;81.90;;;;;;5041620;28;20021;-76
2021/09/05 03:40:42;;;;;;;19.08;10.95;;;11.10;81.70;;;;;;5051360;28;20039;-77
2021/09/05 03:43:08;;;;;;;18.25;10.32;;;11.30;80.90;;;;;;5053467;28;20774;-76
2021/09/05 03:45:34;;;;;;;16.27;9.75;;;11.60;80.40;;;;;;5054875;28;20368;-76
2021/09/05 03:47:59;;;;;;;17.08;9.50;;;11.90;79.60;;;;;;5054882;28;20387;-80
2021/09/05 03:50:25;;;;;;;28.52;10.70;;;12.30;78.60;;;;;;5053708;28;20029;-72
2021/09/05 03:52:51;;;;;;;17.05;9.13;;;12.70;77.80;;;;;;5054772;28;20025;-72
2021/09/05 03:55:16;;;;;;;18.73;9.55;;;13.10;76.80;;;;;;5053467;28;20033;-73
2021/09/05 03:57:42;;;;;;;16.55;8.55;;;13.40;74.90;;;;;;5048188;28;20112;-76
2021/09/05 04:00:08;;;;;;;13.65;8.50;;;13.70;73.90;;;;;;5049322;28;20030;-75
2021/09/05 04:02:34;;;;;;;15.77;8.30;;;14.00;73.00;;;;;;5033907;28;20025;-78
2021/09/05 04:04:59;;;;;;;14.27;8.02;;;14.50;72.10;;;;;;5039960;28;20048;-77
2021/09/05 04:07:25;;;;;;;13.25;7.78;;;14.80;71.00;;;;;;5035610;28;20475;-78
2021/09/05 04:10:09;;;;;;;17.88;8.60;;;15.20;69.80;;;;;;5040242;28;20463;-79
2021/09/05 04:12:36;;;;;;;15.63;8.80;;;15.40;68.80;;;;;;5033953;28;20083;-76
2021/09/05 04:15:02;;;;;;;16.35;9.10;;;15.70;67.70;;;;;;5041568;28;20036;-79
2021/09/05 04:17:27;;;;;;;16.77;8.45;;;16.00;66.60;;;;;;5044283;28;20048;-77
2021/09/05 04:19:53;;;;;;;12.82;7.85;;;16.20;65.70;;;;;;5044719;28;20025;-76
2021/09/05 04:22:19;;;;;;;14.43;8.02;;;16.40;65.10;;;;;;5042027;28;20543;-76
2021/09/05 04:24:44;;;;;;;18.67;8.45;;;16.80;64.50;;;;;;5047634;28;20096;-75
2021/09/05 04:27:10;;;;;;;15.68;8.38;;;17.20;63.80;;;;;;5044883;28;20463;-76
2021/09/05 04:29:36;;;;;;;18.17;8.95;;;17.50;63.00;;;;;;5043900;28;20048;-79
2021/09/05 04:32:02;;;;;;;13.25;8.65;;;17.80;62.30;;;;;;5047755;28;20029;-75
2021/09/05 04:34:27;;;;;;;16.38;7.93;;;18.10;61.60;;;;;;5040311;28;20044;-80
2021/09/05 04:36:53;;;;;;;11.57;7.35;;;18.50;60.90;;;;;;5034118;28;20389;-84
2021/09/05 04:39:19;;;;;;;13.20;7.15;;;18.90;60.30;;;;;;5032346;28;20037;-88
2021/09/05 04:41:46;;;;;;;7.32;4.55;;;19.20;59.40;;;;;;5032874;28;20029;-71
2021/09/05 04:44:12;;;;;;;8.13;3.88;;;19.60;58.40;;;;;;5032932;28;20033;-69
2021/09/05 04:46:37;;;;;;;8.82;3.80;;;19.90;57.30;;;;;;5033661;28;20353;-70
2021/09/05 04:49:03;;;;;;;10.45;3.35;;;20.30;56.20;;;;;;5032444;28;20026;-69
2021/09/05 04:51:29;;;;;;;7.05;3.55;;;20.50;55.30;;;;;;5032949;28;20029;-71
2021/09/05 04:53:54;;;;;;;8.40;4.68;;;20.70;54.80;;;;;;5033031;28;20115;-71
2021/09/05 04:56:20;;;;;;;4.78;2.78;;;21.00;53.90;;;;;;5031725;28;20084;-70
2021/09/05 04:58:46;;;;;;;6.18;3.10;;;21.20;53.40;;;;;;5033033;28;20029;-70
2021/09/05 05:01:12;;;;;;;5.43;3.20;;;21.50;52.70;;;;;;5033057;28;20026;-72
2021/09/05 05:03:38;;;;;;;5.60;3.15;;;21.60;51.50;;;;;;5031312;28;20037;-70
2021/09/05 05:06:06;;;;;;;5.93;3.05;;;21.70;50.90;;;;;;5032023;28;20049;-70
2021/09/05 05:08:32;;;;;;;5.82;3.08;;;21.70;50.50;;;;;;5051925;28;20029;-71
2021/09/05 05:10:58;;;;;;;6.28;3.05;;;21.70;50.10;;;;;;5053465;28;20395;-69
2021/09/05 05:13:25;;;;;;;5.32;2.92;;;21.80;50.20;;;;;;5052220;28;20392;-70
2021/09/05 05:15:51;;;;;;;5.15;3.00;;;22.00;49.90;;;;;;5053233;28;20040;-69
2021/09/05 05:18:16;;;;;;;6.75;3.78;;;22.20;49.90;;;;;;5052028;28;20049;-70
2021/09/05 05:20:42;;;;;;;5.80;2.72;;;22.60;49.60;;;;;;5051632;28;20032;-70
2021/09/05 05:23:07;;;;;;;4.47;2.67;;;22.70;48.70;;;;;;5052938;28;20115;-70
2021/09/05 05:25:33;;;;;;;5.15;2.55;;;22.80;47.90;;;;;;5053011;28;20033;-70
2021/09/05 05:27:59;;;;;;;5.18;2.63;;;22.90;47.50;;;;;;5053481;28;20107;-71
2021/09/05 05:30:25;;;;;;;5.30;2.63;;;22.90;47.00;;;;;;5057200;28;20021;-70
2021/09/05 05:32:50;;;;;;;8.57;6.28;;;22.90;47.00;;;;;;5055921;28;20025;-70
2021/09/05 05:35:16;;;;;;;5.15;2.60;;;23.10;46.80;;;;;;5057286;28;20375;-70
2021/09/05 05:37:42;;;;;;;4.18;2.53;;;23.30;46.50;;;;;;5036966;28;20030;-70
2021/09/05 05:40:09;;;;;;;5.13;2.70;;;23.40;46.30;;;;;;5037082;28;20026;-70
2021/09/05 05:42:35;;;;;;;5.28;2.70;;;23.50;45.40;;;;;;5035988;28;20026;-71
2021/09/05 05:45:00;;;;;;;5.00;2.55;;;23.60;45.70;;;;;;5035924;28;20060;-71
2021/09/05 05:47:28;;;;;;;5.07;2.70;;;23.90;45.50;;;;;;5035873;28;20130;-71
2021/09/05 05:49:54;;;;;;;4.10;2.42;;;24.10;44.90;;;;;;5035581;28;20395;-73
2021/09/05 05:52:19;;;;;;;4.93;2.50;;;24.30;44.20;;;;;;5037116;28;20025;-70
2021/09/05 05:54:45;;;;;;;4.82;2.40;;;24.60;43.80;;;;;;5037204;28;20476;-70
2021/09/05 05:57:11;;;;;;;4.90;2.78;;;24.90;43.70;;;;;;5035772;28;20065;-70
2021/09/05 05:59:37;;;;;;;5.85;2.53;;;25.10;43.10;;;;;;5035558;28;20033;-70
2021/09/05 06:02:03;;;;;;;5.40;2.80;;;25.20;42.80;;;;;;5035134;28;20386;-70
2021/09/05 06:04:28;;;;;;;4.85;2.63;;;25.30;42.70;;;;;;5049562;28;20122;-70
2021/09/05 06:06:54;;;;;;;6.78;3.28;;;25.30;42.50;;;;;;5055126;28;20460;-71
2021/09/05 06:09:20;;;;;;;4.97;3.10;;;25.40;42.50;;;;;;5056876;28;20116;-70
2021/09/05 06:11:45;;;;;;;5.57;2.95;;;25.50;42.00;;;;;;5056600;28;20390;-71
2021/09/05 06:14:11;;;;;;;5.07;2.80;;;25.50;41.70;;;;;;5056308;28;20033;-70
2021/09/05 06:16:37;;;;;;;5.57;2.60;;;25.60;41.20;;;;;;5056261;28;20387;-71
2021/09/05 06:19:03;;;;;;;5.38;2.78;;;25.50;40.90;;;;;;5056331;28;20021;-69
2021/09/05 06:21:29;;;;;;;5.65;2.40;;;25.60;41.30;;;;;;5055225;28;20027;-68
2021/09/05 06:23:55;;;;;;;6.20;2.70;;;25.70;41.30;;;;;;5056740;28;20036;-69
2021/09/05 06:26:21;;;;;;;3.08;2.03;;;25.90;41.40;;;;;;5056251;28;20025;-69
2021/09/05 06:28:46;;;;;;;3.75;1.88;;;25.80;40.80;;;;;;5056386;28;20033;-69
2021/09/05 06:31:12;;;;;;;3.75;2.00;;;25.80;40.80;;;;;;5053410;28;20641;-69
2021/09/05 06:33:38;;;;;;;4.05;2.20;;;25.90;40.90;;;;;;5055865;28;20459;-69
2021/09/05 06:36:04;;;;;;;3.70;1.80;;;26.10;40.90;;;;;;5055616;28;20041;-69
2021/09/05 06:38:29;;;;;;;4.05;1.85;;;26.20;40.50;;;;;;5056253;28;20029;-69
2021/09/05 06:40:55;;;;;;;3.58;1.85;;;26.50;40.40;;;;;;5055587;28;20071;-70
2021/09/05 06:43:21;;;;;;;3.25;1.52;;;26.50;39.90;;;;;;5054634;28;20119;-70
2021/09/05 06:45:46;;;;;;;2.90;1.70;;;26.70;39.80;;;;;;5054474;28;20029;-70
2021/09/05 06:48:13;;;;;;;3.70;1.65;;;26.80;39.10;;;;;;5055537;28;20017;-70
2021/09/05 06:50:38;;;;;;;2.78;1.60;;;27.10;39.00;;;;;;5055880;28;20095;-70
2021/09/05 06:53:04;;;;;;;4.00;1.92;;;27.20;38.80;;;;;;5055604;28;20036;-70
2021/09/05 06:55:30;;;;;;;3.45;1.80;;;27.30;38.60;;;;;;5054558;28;20040;-70
2021/09/05 06:57:56;;;;;;;2.67;1.50;;;27.60;38.50;;;;;;5055587;28;20037;-70
2021/09/05 07:00:21;;;;;;;3.78;2.05;;;27.60;38.70;;;;;;5055423;28;20025;-70
2021/09/05 07:02:47;;;;;;;5.18;2.00;;;27.70;37.80;;;;;;5037285;28;20053;-71
2021/09/05 07:05:13;;;;;;;4.15;2.00;;;27.60;37.50;;;;;;5035701;28;20053;-72
2021/09/05 07:07:38;;;;;;;3.97;2.00;;;27.40;37.20;;;;;;5035400;28;20040;-71
2021/09/05 07:10:05;;;;;;;3.85;1.88;;;27.40;37.70;;;;;;5035505;28;20028;-71
2021/09/05 07:12:31;;;;;;;2.97;1.65;;;27.50;37.20;;;;;;5034124;28;20471;-70
2021/09/05 07:14:56;;;;;;;4.05;1.63;;;27.50;37.30;;;;;;5035425;28;20034;-70
2021/09/05 07:17:22;;;;;;;3.38;1.83;;;27.70;37.70;;;;;;5035418;28;20049;-71
2021/09/05 07:19:48;;;;;;;4.07;1.90;;;27.80;37.60;;;;;;5034205;28;20036;-70
2021/09/05 07:22:13;;;;;;;3.55;1.90;;;28.20;37.30;;;;;;5034173;28;20108;-70
2021/09/05 07:24:39;;;;;;;2.65;1.60;;;28.30;37.00;;;;;;5034236;28;20051;-72
2021/09/05 07:27:05;;;;;;;2.40;1.60;;;28.30;36.30;;;;;;5034998;28;20121;-70
2021/09/05 07:29:31;;;;;;;5.28;3.45;;;28.30;36.60;;;;;;5033772;28;20048;-70
2021/09/05 07:31:57;;;;;;;5.00;1.98;;;28.40;36.50;;;;;;5033064;28;20057;-70
2021/09/05 07:34:23;;;;;;;3.42;2.20;;;28.50;37.20;;;;;;5034743;28;20072;-70
2021/09/05 07:36:48;;;;;;;2.65;1.60;;;28.50;36.30;;;;;;5034875;28;20445;-70
2021/09/05 07:39:14;;;;;;;5.07;1.98;;;28.50;36.30;;;;;;5033693;28;20071;-70
2021/09/05 07:41:39;;;;;;;3.80;1.83;;;28.60;36.50;;;;;;5034816;28;20029;-70
2021/09/05 07:44:05;;;;;;;2.15;1.42;;;28.80;36.10;;;;;;5034689;28;20184;-70
2021/09/05 07:46:31;;;;;;;4.00;1.35;;;28.80;35.10;;;;;;5034922;28;20410;-71
2021/09/05 07:48:57;;;;;;;3.65;1.15;;;28.70;34.60;;;;;;5033608;28;20025;-70
2021/09/05 07:51:24;;;;;;;2.60;1.27;;;28.50;34.70;;;;;;5032691;28;20064;-70
2021/09/05 07:53:53;;;;;;;2.78;1.40;;;28.60;34.80;;;;;;5034822;28;20025;-71
2021/09/05 07:56:19;;;;;;;3.28;1.60;;;28.40;34.80;;;;;;5034535;28;20068;-70
2021/09/05 07:58:47;;;;;;;3.05;1.52;;;28.40;35.20;;;;;;5034498;28;20029;-70
2021/09/05 08:01:13;;;;;;;2.80;1.15;;;28.50;34.80;;;;;;5038075;28;20024;-71
2021/09/05 08:03:39;;;;;;;3.60;1.45;;;28.60;34.70;;;;;;5054553;28;20033;-70
2021/09/05 08:06:06;;;;;;;4.32;1.30;;;28.70;34.60;;;;;;5054799;28;20107;-69
2021/09/05 08:08:36;;;;;;;2.53;1.23;;;29.20;34.80;;;;;;5036234;28;20055;-69
2021/09/05 08:11:06;;;;;;;2.28;1.15;;;29.30;34.50;;;;;;5034526;28;20415;-69
2021/09/05 08:13:32;;;;;;;2.47;1.10;;;29.30;33.90;;;;;;5034452;28;20017;-69
2021/09/05 08:16:00;;;;;;;4.05;1.00;;;29.30;33.30;;;;;;5032802;28;20072;-69
2021/09/05 08:18:32;;;;;;;3.22;1.20;;;29.30;33.50;;;;;;5034408;28;20026;-69
2021/09/05 08:20:58;;;;;;;2.42;1.15;;;29.20;33.20;;;;;;5034526;28;20407;-70
2021/09/05 08:23:25;;;;;;;3.15;1.20;;;29.20;33.50;;;;;;5034049;28;20092;-69
2021/09/05 08:25:51;;;;;;;2.22;1.23;;;29.30;33.50;;;;;;5034031;28;20068;-69
2021/09/05 08:28:16;;;;;;;2.05;1.30;;;29.30;33.30;;;;;;5032553;28;20025;-69
2021/09/05 08:30:43;;;;;;;2.78;1.20;;;29.30;32.80;;;;;;5033566;28;20036;-69
2021/09/05 08:33:10;;;;;;;2.05;1.00;;;29.30;32.80;;;;;;5032591;28;20075;-69
2021/09/05 08:35:36;;;;;;;1.52;1.05;;;29.20;32.40;;;;;;5034031;28;20474;-69
2021/09/05 08:38:02;;;;;;;1.77;1.00;;;29.20;32.30;;;;;;5033826;28;20021;-69
2021/09/05 08:40:28;;;;;;;2.60;1.20;;;29.50;32.60;;;;;;5034117;28;20378;-69
2021/09/05 08:42:54;;;;;;;2.17;1.05;;;29.70;32.70;;;;;;5033931;28;20376;-69
2021/09/05 08:45:20;;;;;;;6.90;1.45;;;29.80;32.50;;;;;;5034367;28;20132;-69
2021/09/05 08:47:46;;;;;;;2.63;1.00;;;30.00;32.80;;;;;;5032532;28;20029;-69
2021/09/05 08:50:12;;;;;;;1.90;1.13;;;30.10;32.20;;;;;;5033602;28;20029;-69
2021/09/05 08:52:38;;;;;;;3.00;1.05;;;30.30;32.20;;;;;;5032333;28;20041;-69
2021/09/05 08:55:06;;;;;;;2.17;1.17;;;30.30;32.10;;;;;;5033563;28;20045;-69
2021/09/05 08:57:32;;;;;;;2.13;1.17;;;30.30;31.80;;;;;;5033381;28;20048;-71
2021/09/05 08:59:58;;;;;;;2.40;1.10;;;30.30;32.20;;;;;;5033945;28;20026;-69
2021/09/05 09:02:23;;;;;;;1.73;1.10;;;30.30;32.30;;;;;;5033270;28;20460;-69
2021/09/05 09:04:53;;;;;;;1.63;1.00;;;30.30;31.80;;;;;;5033597;28;20050;-69
2021/09/05 09:07:19;;;;;;;1.95;0.75;;;30.40;31.90;;;;;;5033729;28;20361;-68
2021/09/05 09:10:01;;;;;;;5.65;2.13;;;30.40;32.00;;;;;;5033835;28;20120;-69
2021/09/05 09:12:37;;;;;;;2.25;1.00;;;30.50;31.70;;;;;;5033680;28;20128;-69
2021/09/05 09:15:16;;;;;;;2.08;0.90;;;30.50;31.40;;;;;;5031798;28;20490;-70
2021/09/05 09:17:41;;;;;;;1.60;0.90;;;30.40;30.50;;;;;;5033389;28;20080;-69
2021/09/05 09:20:08;;;;;;;4.15;1.00;;;30.40;30.90;;;;;;5033478;28;20022;-68
2021/09/05 09:22:33;;;;;;;1.88;0.80;;;30.40;30.80;;;;;;5033204;28;20025;-68
2021/09/05 09:25:00;;;;;;;1.83;1.10;;;30.30;30.00;;;;;;5033553;28;20040;-69
2021/09/05 09:27:26;;;;;;;1.77;0.80;;;30.10;30.00;;;;;;5033401;28;20532;-69
2021/09/05 09:29:58;;;;;;;2.22;0.77;;;30.30;30.20;;;;;;5033362;28;20100;-70
2021/09/05 09:32:26;;;;;;;1.75;1.10;;;30.90;30.20;;;;;;5033370;28;20076;-69
2021/09/05 09:34:53;;;;;;;3.20;1.05;;;31.00;29.60;;;;;;5031778;28;20476;-69
2021/09/05 09:37:23;;;;;;;3.70;0.70;;;31.00;29.80;;;;;;5032020;28;20487;-69
2021/09/05 09:39:52;;;;;;;1.25;0.85;;;30.80;29.50;;;;;;5032041;28;20428;-68
2021/09/05 09:42:31;;;;;;;1.25;0.90;;;30.90;29.60;;;;;;5032017;28;20029;-69
2021/09/05 09:44:57;;;;;;;1.05;0.70;;;30.80;29.40;;;;;;5031770;28;20037;-68
2021/09/05 09:47:22;;;;;;;1.60;0.70;;;30.60;29.40;;;;;;5033335;28;20080;-69
2021/09/05 09:49:50;;;;;;;0.93;0.70;;;30.70;29.70;;;;;;5033265;28;20376;-69
2021/09/05 09:52:17;;;;;;;3.17;0.95;;;30.70;29.90;;;;;;5032193;28;20040;-69
2021/09/05 09:54:44;;;;;;;1.00;0.80;;;31.00;29.30;;;;;;5033013;28;20091;-70
2021/09/05 09:57:10;;;;;;;1.17;0.80;;;31.30;29.00;;;;;;5033124;28;20029;-69
2021/09/05 09:59:36;;;;;;;1.48;0.85;;;31.60;29.20;;;;;;5032971;28;20031;-69
2021/09/05 10:02:03;;;;;;;3.28;0.98;;;31.40;29.20;;;;;;5032890;28;20021;-70
2021/09/05 10:04:31;;;;;;;2.28;1.05;;;31.50;29.40;;;;;;5031461;28;20057;-69
2021/09/05 10:06:57;;;;;;;1.83;0.80;;;30.40;29.00;;;;;;5033119;28;20033;-68
2021/09/05 10:09:24;;;;;;;1.17;0.80;;;29.40;30.00;;;;;;5033033;28;20034;-69
2021/09/05 10:11:51;;;;;;;1.70;1.10;;;29.30;29.90;;;;;;5033013;28;20486;-69
2021/09/05 10:14:20;;;;;;;2.70;0.90;;;29.60;29.60;;;;;;5032614;28;20056;-68
2021/09/05 10:16:46;;;;;;;4.78;1.15;;;29.90;30.00;;;;;;5035352;28;20057;-69
2021/09/05 10:19:14;;;;;;;2.50;0.90;;;30.00;29.70;;;;;;5035533;28;20064;-71
2021/09/05 10:21:40;;;;;;;3.15;1.27;;;30.40;29.10;;;;;;5036617;28;20021;-69
2021/09/05 10:24:14;;;;;;;1.30;0.90;;;30.60;29.20;;;;;;5035186;28;20352;-69
2021/09/05 10:26:58;;;;;;;1.73;1.00;;;30.60;29.20;;;;;;5036523;28;20028;-69
2021/09/05 10:29:24;;;;;;;2.47;1.02;;;30.50;29.40;;;;;;5036384;28;20108;-69
2021/09/05 10:31:50;;;;;;;1.50;0.95;;;30.40;29.20;;;;;;5036591;28;20105;-69
2021/09/05 10:34:39;;;;;;;1.75;0.90;;;30.20;29.00;;;;;;5036282;28;20183;-69
2021/09/05 10:37:11;;;;;;;2.63;1.00;;;30.00;29.10;;;;;;5035073;28;20029;-69
2021/09/05 10:39:57;;;;;;;2.83;0.85;;;29.90;29.10;;;;;;5036447;28;20038;-69
2021/09/05 10:42:25;;;;;;;2.83;0.82;;;29.90;29.00;;;;;;5035123;28;20448;-69
2021/09/05 10:45:06;;;;;;;1.30;0.80;;;30.20;29.10;;;;;;5045479;28;20390;-70
2021/09/05 10:47:43;;;;;;;3.25;1.00;;;30.30;29.20;;;;;;5056036;28;20029;-70
2021/09/05 10:50:39;;;;;;;3.10;1.00;;;30.40;29.20;;;;;;5034884;28;20029;-69
2021/09/05 10:53:21;;;;;;;;;;;30.40;29.50;;;;;;5046711;28;20483;-69
2021/09/05 10:56:11;;;;;;;1.60;0.95;;;30.40;29.90;;;;;;5051009;28;19921;-68
2021/09/05 10:58:52;;;;;;;2.22;0.90;;;30.40;29.20;;;;;;5050903;28;20032;-68
2021/09/05 11:01:19;;;;;;;1.40;0.90;;;30.80;29.40;;;;;;5035714;28;20030;-68
2021/09/05 11:04:09;;;;;;;1.50;0.82;;;30.80;29.00;;;;;;5035681;28;20030;-69
2021/09/05 11:06:40;;;;;;;1.92;0.80;;;30.40;28.30;;;;;;5035561;28;20045;-68
2021/09/05 11:09:20;;;;;;;1.48;0.90;;;29.30;28.50;;;;;;5035444;28;20049;-69
2021/09/05 11:12:38;;;;;;;2.10;1.10;;;28.70;28.90;;;;;;5035699;28;20467;-68
2021/09/05 11:15:19;;;;;;;1.10;0.75;;;28.80;29.20;;;;;;5053157;28;20033;-68
2021/09/05 11:17:52;;;;;;;2.30;0.90;;;29.10;29.20;;;;;;5035008;28;20480;-69
2021/09/05 11:20:18;;;;;;;2.55;1.00;;;29.10;29.10;;;;;;5054620;28;20021;-68
2021/09/05 11:22:48;;;;;;;1.17;0.82;;;28.80;29.00;;;;;;5054951;28;20031;-68
2021/09/05 11:25:22;;;;;;;2.55;1.10;;;27.80;29.00;;;;;;5055088;28;20060;-69
2021/09/05 11:28:04;;;;;;;2.85;1.10;;;27.10;29.80;;;;;;5053185;28;20107;-68
2021/09/05 11:30:44;;;;;;;1.58;1.00;;;26.90;29.90;;;;;;5055192;28;20112;-68
2021/09/05 11:33:12;;;;;;;2.13;0.90;;;27.10;30.40;;;;;;5054907;28;20031;-68
2021/09/05 11:35:44;;;;;;;1.60;1.00;;;27.50;30.70;;;;;;5053744;28;20033;-67
2021/09/05 11:38:10;;;;;;;1.90;0.90;;;27.80;30.00;;;;;;5055114;28;20059;-68
2021/09/05 11:40:41;;;;;;;1.52;0.95;;;28.10;30.10;;;;;;5055000;28;20057;-68
2021/09/05 11:43:07;;;;;;;3.58;0.95;;;28.10;29.70;;;;;;5055249;28;20040;-73
2021/09/05 11:45:38;;;;;;;1.85;1.00;;;28.20;29.70;;;;;;5034851;28;20148;-68
2021/09/05 11:48:06;;;;;;;3.13;1.30;;;28.20;29.50;;;;;;5034698;28;20029;-68
2021/09/05 11:50:37;;;;;;;2.00;0.90;;;28.30;29.60;;;;;;5043432;28;20498;-68
2021/09/05 11:53:04;;;;;;;1.33;0.82;;;27.90;29.50;;;;;;5054516;28;20033;-68
2021/09/05 11:55:30;;;;;;;1.52;0.90;;;27.40;29.70;;;;;;5045545;28;20041;-69
2021/09/05 11:57:57;;;;;;;2.08;1.25;;;27.20;29.90;;;;;;5034815;28;20053;-68
2021/09/05 12:00:53;;;;;;;2.40;1.00;;;26.80;29.70;;;;;;5039147;28;20017;-68
2021/09/05 12:03:24;;;;;;;1.92;1.10;;;26.30;30.40;;;;;;5053143;28;20033;-70
2021/09/05 12:05:53;;;;;;;2.25;1.10;;;25.90;30.40;;;;;;5054311;28;20052;-68
2021/09/05 12:08:19;;;;;;;4.07;1.15;;;25.50;31.10;;;;;;5048590;28;20021;-70
2021/09/05 12:10:46;;;;;;;2.35;1.13;;;25.20;31.40;;;;;;5041025;28;20460;-68
2021/09/05 12:13:15;;;;;;;3.08;1.33;;;24.80;31.50;;;;;;5040687;28;20016;-69
2021/09/05 12:15:48;;;;;;;2.53;1.17;;;24.60;32.00;;;;;;5033635;28;20104;-67
2021/09/05 12:18:17;;;;;;;1.85;1.10;;;24.40;31.90;;;;;;5033347;28;20025;-67
2021/09/05 12:20:46;;;;;;;1.92;1.00;;;24.10;32.60;;;;;;5033217;28;20036;-67
2021/09/05 12:23:27;;;;;;;2.47;1.20;;;23.80;33.20;;;;;;5032687;28;20112;-69
2021/09/05 12:25:55;;;;;;;5.22;2.00;;;23.20;33.80;;;;;;5037767;28;20021;-68
2021/09/05 12:28:32;;;;;;;3.38;1.33;;;22.70;34.20;;;;;;5054234;28;20037;-70
2021/09/05 12:31:03;;;;;;;4.05;1.15;;;22.50;35.00;;;;;;5052087;28;20379;-67
2021/09/05 12:33:28;;;;;;;2.83;1.38;;;22.50;34.90;;;;;;5052408;28;20056;-69
2021/09/05 12:36:06;;;;;;;2.17;1.10;;;22.50;34.40;;;;;;5052399;28;20439;-68
2021/09/05 12:38:34;;;;;;;2.97;1.33;;;22.40;34.00;;;;;;5053461;28;20025;-67
2021/09/05 12:41:06;;;;;;;2.10;1.30;;;22.10;34.20;;;;;;5053676;28;20021;-67
2021/09/05 12:43:47;;;;;;;4.88;2.10;;;21.90;34.30;;;;;;5043357;28;20045;-68